createdAt,value
2023-03-06T00:00:40.296Z,79.15
2023-03-06T00:03:20.359Z,76.22
2023-03-06T00:05:48.415Z,67.38
2023-03-06T00:08:16.119Z,77.20
2023-03-06T00:10:44.026Z,80.50
2023-03-06T00:13:13.517Z,81.32
2023-03-06T00:15:41.575Z,82.85
2023-03-06T00:18:09.249Z,87.68
2023-03-06T00:20:37.221Z,78.35
2023-03-06T00:23:05.266Z,88.60
2023-03-06T00:25:32.610Z,83.97
2023-03-06T00:28:00.229Z,78.93
2023-03-06T00:30:27.632Z,78.72
2023-03-06T00:32:55.292Z,74.70
2023-03-06T00:35:23.996Z,79.47
2023-03-06T00:37:51.667Z,78.45
2023-03-06T00:40:20.845Z,80.57
2023-03-06T00:42:48.674Z,83.93
2023-03-06T00:45:16.295Z,83.45
2023-03-06T00:47:44.129Z,87.05
2023-03-06T00:50:11.750Z,80.88
2023-03-06T00:52:39.708Z,74.38
2023-03-06T00:55:08.897Z,78.82
2023-03-06T00:57:36.616Z,74.90
2023-03-06T01:00:05.573Z,75.25
2023-03-06T01:02:33.263Z,81.65
2023-03-06T01:05:00.919Z,79.25
2023-03-06T01:07:28.843Z,77.90
2023-03-06T01:09:57.112Z,84.38
2023-03-06T01:12:24.906Z,82.00
2023-03-06T01:14:52.319Z,79.60
2023-03-06T01:17:19.889Z,80.75
2023-03-06T01:19:47.195Z,87.07
2023-03-06T01:22:15.002Z,85.68
2023-03-06T01:24:42.349Z,78.65
2023-03-06T01:27:10.007Z,83.90
2023-03-06T01:29:37.452Z,90.10
2023-03-06T01:32:05.477Z,84.30
2023-03-06T01:34:32.998Z,86.43
2023-03-06T01:37:00.711Z,84.03
2023-03-06T01:39:28.923Z,88.47
2023-03-06T01:41:56.576Z,91.00
2023-03-06T01:44:24.078Z,85.22
2023-03-06T01:46:51.860Z,85.82
2023-03-06T01:49:32.284Z,84.95
2023-03-06T01:52:18.564Z,76.60
2023-03-06T01:54:50.636Z,77.07
2023-03-06T01:57:21.424Z,79.78
2023-03-06T01:59:53.256Z,90.50
2023-03-06T02:02:21.235Z,90.70
2023-03-06T02:04:48.967Z,81.82
2023-03-06T02:07:19.168Z,85.22
2023-03-06T02:09:46.673Z,78.88
2023-03-06T02:12:19.267Z,86.78
2023-03-06T02:14:47.384Z,84.30
2023-03-06T02:17:17.815Z,78.50
2023-03-06T02:20:08.965Z,81.05
2023-03-06T02:22:43.921Z,90.78
2023-03-06T02:25:34.346Z,77.55
2023-03-06T02:28:05.029Z,81.28
2023-03-06T02:30:32.691Z,79.05
2023-03-06T02:33:02.383Z,81.35
2023-03-06T02:35:35.219Z,86.03
2023-03-06T02:38:08.216Z,88.03
2023-03-06T02:40:35.571Z,83.68
2023-03-06T02:43:03.605Z,80.82
2023-03-06T02:45:38.885Z,77.38
2023-03-06T02:48:07.248Z,71.40
2023-03-06T02:50:34.640Z,78.25
2023-03-06T02:53:02.189Z,84.88
2023-03-06T02:55:31.957Z,85.45
2023-03-06T02:58:00.793Z,77.28
2023-03-06T03:00:29.697Z,70.68
2023-03-06T03:02:57.502Z,74.75
2023-03-06T03:05:25.069Z,79.55
2023-03-06T03:07:59.331Z,80.63
2023-03-06T03:10:28.417Z,78.00
2023-03-06T03:12:56.356Z,82.93
2023-03-06T03:15:24.976Z,70.75
2023-03-06T03:17:52.610Z,78.25
2023-03-06T03:20:21.976Z,67.95
2023-03-06T03:22:50.952Z,71.13
2023-03-06T03:25:20.794Z,68.85
2023-03-06T03:27:48.443Z,80.55
2023-03-06T03:30:16.000Z,80.82
2023-03-06T03:32:44.025Z,88.07
2023-03-06T03:35:12.710Z,78.90
2023-03-06T03:37:41.284Z,78.95
2023-03-06T03:40:10.417Z,81.65
2023-03-06T03:42:38.687Z,80.70
2023-03-06T03:45:07.470Z,87.85
2023-03-06T03:47:34.974Z,77.22
2023-03-06T03:50:03.150Z,77.70
2023-03-06T03:52:30.896Z,80.10
2023-03-06T03:54:58.444Z,79.30
2023-03-06T03:57:27.674Z,72.63
2023-03-06T03:59:57.199Z,80.20
2023-03-06T04:02:45.550Z,78.65
2023-03-06T04:05:22.102Z,79.53
2023-03-06T04:07:49.980Z,67.22
2023-03-06T04:10:17.427Z,75.60
2023-03-06T04:12:45.501Z,80.40
2023-03-06T04:15:12.908Z,77.93
2023-03-06T04:17:40.980Z,81.15
2023-03-06T04:20:14.644Z,67.97
2023-03-06T04:22:42.857Z,79.30
2023-03-06T04:25:11.734Z,77.07
2023-03-06T04:27:39.368Z,73.18
2023-03-06T04:30:07.996Z,85.55
2023-03-06T04:32:36.469Z,85.47
2023-03-06T04:35:05.353Z,80.10
2023-03-06T04:37:38.399Z,79.45
2023-03-06T04:40:06.772Z,79.22
2023-03-06T04:42:34.504Z,80.57
2023-03-06T04:45:01.677Z,83.30
2023-03-06T04:47:29.181Z,82.80
2023-03-06T04:49:56.624Z,73.00
2023-03-06T04:52:24.370Z,83.60
2023-03-06T04:54:51.652Z,86.90
2023-03-06T04:57:19.270Z,80.43
2023-03-06T04:59:46.564Z,75.40
2023-03-06T05:02:14.158Z,84.63
2023-03-06T05:04:41.532Z,77.78
2023-03-06T05:07:09.583Z,69.85
2023-03-06T05:09:39.071Z,73.70
2023-03-06T05:12:07.148Z,78.03
2023-03-06T05:14:34.696Z,73.70
2023-03-06T05:17:02.460Z,70.53
2023-03-06T05:19:29.908Z,75.88
2023-03-06T05:21:57.665Z,78.03
2023-03-06T05:24:25.087Z,71.95
2023-03-06T05:26:53.116Z,81.57
2023-03-06T05:29:20.461Z,73.25
2023-03-06T05:32:46.167Z,79.28
2023-03-06T05:35:24.420Z,74.65
2023-03-06T05:37:53.623Z,89.32
2023-03-06T05:40:22.332Z,81.97
2023-03-06T05:42:49.850Z,85.05
2023-03-06T05:45:17.620Z,84.90
2023-03-06T05:47:46.781Z,84.60
2023-03-06T05:50:15.051Z,71.18
2023-03-06T05:52:42.824Z,88.20
2023-03-06T05:55:12.284Z,80.40
2023-03-06T05:57:40.259Z,73.78
2023-03-06T06:00:11.055Z,91.93
2023-03-06T06:02:43.746Z,92.15
2023-03-06T06:05:13.882Z,102.00
2023-03-06T06:07:43.267Z,103.03
2023-03-06T06:10:13.282Z,109.72
2023-03-06T06:12:44.164Z,98.57
2023-03-06T06:15:12.584Z,90.20
2023-03-06T06:17:43.205Z,88.97
2023-03-06T06:20:13.525Z,82.77
2023-03-06T06:22:43.566Z,71.07
2023-03-06T06:25:13.671Z,71.47
2023-03-06T06:27:43.685Z,70.70
2023-03-06T06:30:13.827Z,63.25
2023-03-06T06:32:45.547Z,63.35
2023-03-06T06:35:15.439Z,64.65
2023-03-06T06:37:45.380Z,61.92
2023-03-06T06:40:15.114Z,61.47
2023-03-06T06:42:44.991Z,62.03
2023-03-06T06:45:13.886Z,63.42
2023-03-06T06:47:44.658Z,63.55
2023-03-06T06:50:15.754Z,58.10
2023-03-06T06:52:46.374Z,54.53
2023-03-06T06:55:13.997Z,53.88
2023-03-06T06:57:42.490Z,53.95
2023-03-06T07:00:11.726Z,55.75
2023-03-06T07:02:40.045Z,48.00
2023-03-06T07:05:07.632Z,58.10
2023-03-06T07:07:36.855Z,66.10
2023-03-06T07:10:06.582Z,53.88
2023-03-06T07:12:35.343Z,57.78
2023-03-06T07:15:03.797Z,50.13
2023-03-06T07:17:31.428Z,51.65
2023-03-06T07:19:59.767Z,57.15
2023-03-06T07:22:30.269Z,54.75
2023-03-06T07:24:59.156Z,61.75
2023-03-06T07:27:27.301Z,58.05
2023-03-06T07:29:54.999Z,52.72
2023-03-06T07:32:22.835Z,47.83
2023-03-06T07:34:50.186Z,57.53
2023-03-06T07:37:17.779Z,52.90
2023-03-06T07:39:45.115Z,49.65
2023-03-06T07:42:14.018Z,50.67
2023-03-06T07:44:48.436Z,46.13
2023-03-06T07:47:16.029Z,51.45
2023-03-06T07:49:43.079Z,52.40
2023-03-06T07:52:10.959Z,47.88
2023-03-06T07:54:38.214Z,41.47
2023-03-06T07:57:05.970Z,49.20
2023-03-06T07:59:33.360Z,39.60
2023-03-06T08:02:00.990Z,48.33
2023-03-06T08:04:29.147Z,39.97
2023-03-06T08:06:59.778Z,45.67
2023-03-06T08:09:27.291Z,44.78
2023-03-06T08:11:54.985Z,42.35
2023-03-06T08:14:22.512Z,40.75
2023-03-06T08:16:51.355Z,38.65
2023-03-06T08:19:18.703Z,39.85
2023-03-06T08:21:46.586Z,39.45
2023-03-06T08:24:16.710Z,45.10
2023-03-06T08:26:46.644Z,37.72
2023-03-06T08:29:13.988Z,39.83
2023-03-06T08:31:44.478Z,34.72
2023-03-06T08:34:17.787Z,35.22
2023-03-06T08:36:45.800Z,36.20
2023-03-06T08:39:14.420Z,38.13
2023-03-06T08:41:44.803Z,36.28
2023-03-06T08:44:12.038Z,34.08
2023-03-06T08:46:39.858Z,40.50
2023-03-06T08:49:07.350Z,35.45
2023-03-06T08:51:35.137Z,37.13
2023-03-06T08:54:02.625Z,29.25
2023-03-06T08:56:33.428Z,31.63
2023-03-06T08:59:02.373Z,32.03
2023-03-06T09:01:32.696Z,29.30
2023-03-06T09:04:02.290Z,31.17
2023-03-06T09:06:33.282Z,27.00
2023-03-06T09:09:01.045Z,24.92
2023-03-06T09:11:29.027Z,25.70
2023-03-06T09:13:57.164Z,25.88
2023-03-06T09:16:25.458Z,26.20
2023-03-06T09:18:54.167Z,24.48
2023-03-06T09:21:23.219Z,21.45
2023-03-06T09:23:50.912Z,22.98
2023-03-06T09:26:18.900Z,23.83
2023-03-06T09:28:46.739Z,23.13
2023-03-06T09:31:17.844Z,23.25
2023-03-06T09:33:45.448Z,26.90
2023-03-06T09:36:18.644Z,19.67
2023-03-06T09:38:48.052Z,22.70
2023-03-06T09:41:22.426Z,19.45
2023-03-06T09:43:52.027Z,26.50
2023-03-06T09:46:31.730Z,20.92
2023-03-06T09:49:10.411Z,25.67
2023-03-06T09:51:47.337Z,20.80
2023-03-06T09:54:16.187Z,25.10
2023-03-06T09:56:47.798Z,23.50
2023-03-06T09:59:21.767Z,25.17
2023-03-06T10:02:00.720Z,19.98
2023-03-06T10:04:36.368Z,22.25
2023-03-06T10:07:15.333Z,25.98
2023-03-06T10:09:46.984Z,26.83
2023-03-06T10:12:24.816Z,19.90
2023-03-06T10:15:20.250Z,21.33
2023-03-06T10:17:48.290Z,19.23
2023-03-06T10:20:24.715Z,17.65
2023-03-06T10:23:11.167Z,19.10
2023-03-06T10:26:02.440Z,12.35
2023-03-06T10:28:43.124Z,12.73
2023-03-06T10:31:19.139Z,10.27
2023-03-06T10:34:08.526Z,11.77
2023-03-06T10:36:35.776Z,14.30
2023-03-06T10:39:12.830Z,17.77
2023-03-06T10:41:40.333Z,21.98
2023-03-06T10:44:09.418Z,18.17
2023-03-06T10:46:44.809Z,25.75
2023-03-06T10:49:15.252Z,21.45
2023-03-06T10:51:56.722Z,18.35
2023-03-06T10:54:24.505Z,23.65
2023-03-06T10:56:52.028Z,24.30
2023-03-06T10:59:25.696Z,15.88
2023-03-06T11:01:55.501Z,19.30
2023-03-06T11:04:26.728Z,15.27
2023-03-06T11:07:19.733Z,18.42
2023-03-06T11:10:18.068Z,21.83
2023-03-06T11:13:00.782Z,25.90
2023-03-06T11:15:29.563Z,27.50
2023-03-06T11:18:01.702Z,20.77
2023-03-06T11:20:50.016Z,24.85
2023-03-06T11:23:20.643Z,20.10
2023-03-06T11:25:56.471Z,20.00
2023-03-06T11:28:30.822Z,20.38
2023-03-06T11:31:06.301Z,19.15
2023-03-06T11:33:53.699Z,19.83
2023-03-06T11:36:38.739Z,26.10
2023-03-06T11:39:37.030Z,22.33
2023-03-06T11:42:42.053Z,26.05
2023-03-06T11:45:27.912Z,25.20
2023-03-06T11:48:04.305Z,24.65
2023-03-06T11:50:35.334Z,27.50
2023-03-06T11:53:07.554Z,24.30
2023-03-06T11:56:00.483Z,22.67
2023-03-06T11:58:58.929Z,22.75
2023-03-06T12:01:44.709Z,25.17
2023-03-06T12:04:49.512Z,28.60
2023-03-06T12:07:23.964Z,27.67
2023-03-06T12:10:17.176Z,26.67
2023-03-06T12:12:53.840Z,23.63
2023-03-06T12:15:27.534Z,21.42
2023-03-06T12:18:13.583Z,22.73
2023-03-06T12:20:59.895Z,26.45
2023-03-06T12:23:40.677Z,23.58
2023-03-06T12:26:35.514Z,24.30
2023-03-06T12:29:34.286Z,26.98
2023-03-06T12:32:30.077Z,25.63
2023-03-06T12:35:25.766Z,23.40
2023-03-06T12:38:08.200Z,26.70
2023-03-06T12:40:47.219Z,20.98
2023-03-06T12:43:49.369Z,23.75
2023-03-06T12:46:19.676Z,25.33
2023-03-06T12:49:20.170Z,26.48
2023-03-06T12:51:50.985Z,21.05
2023-03-06T12:54:21.875Z,25.17
2023-03-06T12:56:49.783Z,25.55
2023-03-06T12:59:39.288Z,27.77
2023-03-06T13:02:25.092Z,23.42
2023-03-06T13:05:05.090Z,22.08
2023-03-06T13:07:52.837Z,24.42
2023-03-06T13:10:27.749Z,20.98
2023-03-06T13:13:33.983Z,22.13
2023-03-06T13:16:20.559Z,37.38
2023-03-06T13:18:55.771Z,26.88
2023-03-06T13:21:43.870Z,19.50
2023-03-06T13:24:32.481Z,25.40
2023-03-06T13:27:02.927Z,28.08
2023-03-06T13:29:36.228Z,27.40
2023-03-06T13:32:04.021Z,30.55
2023-03-06T13:34:39.282Z,36.80
2023-03-06T13:37:25.908Z,32.67
2023-03-06T13:39:55.818Z,38.45
2023-03-06T13:42:27.632Z,36.00
2023-03-06T13:44:56.499Z,33.20
2023-03-06T13:47:39.718Z,37.17
2023-03-06T13:50:38.267Z,40.95
2023-03-06T13:53:18.590Z,36.90
2023-03-06T13:55:58.111Z,38.05
2023-03-06T13:59:07.421Z,43.25
2023-03-06T14:01:59.770Z,40.33
2023-03-06T14:04:36.176Z,42.20
2023-03-06T14:07:23.663Z,46.42
2023-03-06T14:10:21.905Z,52.10
2023-03-06T14:12:49.162Z,44.40
2023-03-06T14:15:21.500Z,39.58
2023-03-06T14:17:59.688Z,47.53
2023-03-06T14:20:50.904Z,41.50
2023-03-06T14:23:25.365Z,47.92
2023-03-06T14:26:05.149Z,47.22
2023-03-06T14:28:33.827Z,47.08
2023-03-06T14:31:03.393Z,44.15
2023-03-06T14:33:53.935Z,44.97
2023-03-06T14:36:23.897Z,42.88
2023-03-06T14:38:57.555Z,63.40
2023-03-06T14:41:30.259Z,47.15
2023-03-06T14:44:19.703Z,46.83
2023-03-06T14:46:50.013Z,45.53
2023-03-06T14:49:19.912Z,46.47
2023-03-06T14:51:53.258Z,46.67
2023-03-06T14:56:53.359Z,44.83
2023-03-06T14:59:25.776Z,47.50
2023-03-06T15:01:59.337Z,49.85
2023-03-06T15:04:36.645Z,46.58
2023-03-06T15:07:10.720Z,53.22
2023-03-06T15:09:38.799Z,46.92
2023-03-06T15:12:24.541Z,46.95
2023-03-06T15:15:00.598Z,50.92
2023-03-06T15:17:29.431Z,49.47
2023-03-06T15:20:00.766Z,48.13
2023-03-06T15:22:37.966Z,51.50
2023-03-06T15:25:11.504Z,51.08
2023-03-06T15:27:39.091Z,47.72
2023-03-06T15:30:23.184Z,55.60
2023-03-06T15:32:50.894Z,48.95
2023-03-06T15:35:38.232Z,54.72
2023-03-06T15:38:26.911Z,52.40
2023-03-06T15:40:56.602Z,53.50
2023-03-06T15:43:24.329Z,52.95
2023-03-06T15:45:57.996Z,50.63
2023-03-06T15:48:26.416Z,46.38
2023-03-06T15:50:53.788Z,52.70
2023-03-06T15:53:21.394Z,50.78
2023-03-06T15:55:49.786Z,50.05
2023-03-06T15:58:20.609Z,50.45
2023-03-06T16:00:48.460Z,48.92
2023-03-06T16:03:16.626Z,57.45
2023-03-06T16:05:43.884Z,59.00
2023-03-06T16:08:14.860Z,62.53
2023-03-06T16:10:43.500Z,68.78
2023-03-06T16:13:19.802Z,67.85
2023-03-06T16:15:48.936Z,66.28
2023-03-06T16:18:17.234Z,71.32
2023-03-06T16:20:44.911Z,68.30
2023-03-06T16:23:12.562Z,64.82
2023-03-06T16:25:42.425Z,68.53
2023-03-06T16:28:15.559Z,63.60
2023-03-06T16:30:44.266Z,68.68
2023-03-06T16:33:12.873Z,67.68
2023-03-06T16:35:41.429Z,75.07
2023-03-06T16:38:10.251Z,77.13
2023-03-06T16:40:41.346Z,73.15
2023-03-06T16:43:10.770Z,73.78
2023-03-06T16:45:40.041Z,76.22
2023-03-06T16:48:07.885Z,73.10
2023-03-06T16:50:39.968Z,83.28
2023-03-06T16:53:08.128Z,82.28
2023-03-06T16:55:35.466Z,80.82
2023-03-06T16:58:03.280Z,84.50
2023-03-06T17:00:33.350Z,86.43
2023-03-06T17:03:02.419Z,90.15
2023-03-06T17:05:33.151Z,83.25
2023-03-06T17:08:01.176Z,87.40
2023-03-06T17:10:28.561Z,91.95
2023-03-06T17:12:56.629Z,99.38
2023-03-06T17:15:23.978Z,97.60
2023-03-06T17:17:53.381Z,87.57
2023-03-06T17:20:21.078Z,96.20
2023-03-06T17:22:48.793Z,87.03
2023-03-06T17:25:16.252Z,99.75
2023-03-06T17:27:44.123Z,91.38
2023-03-06T17:30:12.333Z,106.78
2023-03-06T17:32:41.194Z,102.10
2023-03-06T17:35:09.669Z,103.63
2023-03-06T17:37:37.513Z,108.07
2023-03-06T17:40:08.343Z,101.28
2023-03-06T17:42:36.190Z,102.32
2023-03-06T17:45:04.584Z,109.90
2023-03-06T17:47:32.162Z,111.43
2023-03-06T17:49:59.688Z,105.82
2023-03-06T17:52:27.460Z,109.97
2023-03-06T17:54:54.851Z,113.32
2023-03-06T17:57:26.047Z,104.07
2023-03-06T17:59:53.516Z,113.72
2023-03-06T18:02:21.383Z,106.38
2023-03-06T18:04:49.053Z,97.20
2023-03-06T18:07:17.100Z,108.53
2023-03-06T18:09:44.440Z,105.30
2023-03-06T18:12:12.136Z,102.88
2023-03-06T18:14:39.319Z,107.13
2023-03-06T18:17:06.888Z,103.32
2023-03-06T18:19:34.145Z,100.15
2023-03-06T18:22:01.802Z,95.15
2023-03-06T18:24:29.281Z,96.50
2023-03-06T18:26:56.929Z,97.60
2023-03-06T18:29:24.477Z,94.97
2023-03-06T18:31:53.431Z,98.40
2023-03-06T18:34:20.875Z,93.75
2023-03-06T18:36:50.903Z,97.82
2023-03-06T18:39:18.718Z,100.25
2023-03-06T18:41:46.435Z,101.25
2023-03-06T18:44:17.750Z,98.60
2023-03-06T18:46:45.696Z,105.32
2023-03-06T18:49:14.245Z,108.70
2023-03-06T18:51:42.520Z,108.57
2023-03-06T18:54:10.768Z,106.22
2023-03-06T18:56:40.014Z,103.15
2023-03-06T18:59:07.535Z,100.32
2023-03-06T19:01:35.753Z,100.90
2023-03-06T19:04:04.131Z,101.30
2023-03-06T19:06:32.391Z,100.32
2023-03-06T19:09:01.842Z,107.07
2023-03-06T19:11:30.106Z,95.93
2023-03-06T19:13:58.414Z,101.95
2023-03-06T19:16:28.037Z,107.97
2023-03-06T19:18:56.264Z,95.75
2023-03-06T19:21:26.805Z,99.18
2023-03-06T19:23:54.665Z,94.30
2023-03-06T19:26:23.974Z,87.82
2023-03-06T19:28:52.956Z,93.60
2023-03-06T19:31:26.960Z,90.22
2023-03-06T19:33:56.929Z,93.70
2023-03-06T19:36:28.906Z,86.97
2023-03-06T19:38:58.429Z,97.60
2023-03-06T19:41:26.565Z,89.28
2023-03-06T19:43:56.839Z,85.93
2023-03-06T19:46:27.974Z,86.78
2023-03-06T19:49:01.141Z,90.72
2023-03-06T19:51:30.608Z,98.22
2023-03-06T19:53:58.441Z,91.53
2023-03-06T19:56:29.489Z,82.20
2023-03-06T19:58:58.646Z,92.03
2023-03-06T20:01:28.134Z,86.22
2023-03-06T20:04:00.672Z,79.97
2023-03-06T20:06:31.420Z,83.57
2023-03-06T20:08:58.873Z,79.68
2023-03-06T20:11:31.323Z,67.65
2023-03-06T20:14:00.338Z,74.10
2023-03-06T20:16:29.433Z,75.97
2023-03-06T20:18:59.074Z,69.78
2023-03-06T20:21:32.101Z,71.07
2023-03-06T20:24:00.014Z,76.80
2023-03-06T20:26:29.411Z,79.55
2023-03-06T20:28:57.372Z,80.90
2023-03-06T20:31:27.750Z,76.60
2023-03-06T20:33:57.911Z,66.97
2023-03-06T20:36:31.574Z,64.68
2023-03-06T20:39:05.275Z,63.72
2023-03-06T20:41:33.578Z,64.70
2023-03-06T20:44:02.879Z,70.13
2023-03-06T20:46:31.245Z,69.18
2023-03-06T20:48:59.736Z,64.20
2023-03-06T20:51:31.757Z,63.85
2023-03-06T20:54:00.516Z,62.25
2023-03-06T20:56:30.645Z,63.70
2023-03-06T20:58:58.746Z,62.05
2023-03-06T21:01:29.296Z,68.82
2023-03-06T21:03:57.597Z,71.88
2023-03-06T21:06:26.621Z,63.83
2023-03-06T21:08:54.527Z,66.63
2023-03-06T21:11:22.277Z,64.78
2023-03-06T21:13:49.732Z,69.45
2023-03-06T21:16:19.543Z,66.57
2023-03-06T21:18:47.599Z,70.03
2023-03-06T21:21:21.123Z,62.90
2023-03-06T21:23:49.014Z,62.08
2023-03-06T21:26:22.144Z,67.05
2023-03-06T21:28:49.792Z,61.28
2023-03-06T21:31:19.148Z,66.05
2023-03-06T21:33:48.002Z,71.13
2023-03-06T21:36:16.592Z,69.03
2023-03-06T21:38:43.844Z,67.90
2023-03-06T21:41:19.987Z,65.18
2023-03-06T21:43:47.388Z,73.40
2023-03-06T21:46:15.283Z,65.82
2023-03-06T21:48:42.688Z,72.53
2023-03-06T21:51:21.107Z,71.32
2023-03-06T21:53:49.184Z,72.53
2023-03-06T21:56:18.646Z,68.55
2023-03-06T21:58:46.386Z,73.68
2023-03-06T22:01:18.319Z,72.72
2023-03-06T22:03:46.180Z,72.05
2023-03-06T22:06:16.597Z,73.75
2023-03-06T22:08:44.347Z,82.30
2023-03-06T22:11:15.075Z,79.80
2023-03-06T22:13:42.830Z,75.18
2023-03-06T22:16:10.537Z,71.82
2023-03-06T22:18:38.214Z,83.10
2023-03-06T22:21:10.922Z,85.32
2023-03-06T22:23:39.027Z,83.07
2023-03-06T22:26:09.859Z,90.85
2023-03-06T22:28:37.588Z,90.65
2023-03-06T22:31:07.607Z,86.82
2023-03-06T22:33:35.418Z,87.40
2023-03-06T22:36:06.570Z,86.63
2023-03-06T22:38:34.868Z,88.15
2023-03-06T22:41:02.998Z,89.03
2023-03-06T22:43:31.721Z,116.80
2023-03-06T22:46:18.158Z,124.90
2023-03-06T22:48:45.718Z,94.20
2023-03-06T22:51:18.711Z,98.25
2023-03-06T22:53:47.102Z,100.45
2023-03-06T22:56:17.187Z,92.03
2023-03-06T22:58:45.038Z,89.55
2023-03-06T23:01:15.567Z,104.38
2023-03-06T23:03:45.915Z,98.65
2023-03-06T23:06:18.367Z,91.28
2023-03-06T23:08:50.084Z,91.93
2023-03-06T23:11:19.744Z,101.35
2023-03-06T23:14:06.462Z,104.18
2023-03-06T23:16:52.783Z,106.13
2023-03-06T23:19:38.524Z,96.65
2023-03-06T23:22:25.005Z,103.63
2023-03-06T23:25:10.969Z,103.82
2023-03-06T23:27:39.070Z,115.47
2023-03-06T23:30:07.086Z,112.05
2023-03-06T23:32:34.960Z,104.57
2023-03-06T23:35:02.589Z,120.57
2023-03-06T23:37:30.408Z,109.03
2023-03-06T23:39:58.231Z,106.97
2023-03-06T23:42:25.900Z,111.28
2023-03-06T23:44:53.236Z,115.22
2023-03-06T23:47:20.994Z,113.07
2023-03-06T23:49:48.437Z,114.35
2023-03-06T23:52:15.945Z,107.80
2023-03-06T23:54:43.382Z,105.35
2023-03-06T23:57:10.861Z,119.22
2023-03-06T23:59:37.969Z,113.15
